Time;durP1;ratioP1;P1;durP2;ratioP2;P2;SDS_P1;SDS_P2;PMS_P1;PMS_P2;Temp;Humidity;BMP_temperature;BMP_pressure;BME280_temperature;BME280_humidity;BME280_pressure;Samples;Min_cycle;Max_cycle;Signal;HPM_P1;HPM_P2
2024/02/19 00:01:09;;;;;;;3.72;2.15;;;8.50;99.90;;;;;;4979932;28;20133;-70
2024/02/19 00:03:36;;;;;;;4.45;2.10;;;8.60;99.90;;;;;;4997159;28;20070;-72
2024/02/19 00:06:04;;;;;;;3.50;1.80;;;8.70;99.90;;;;;;4995438;28;20073;-72
2024/02/19 00:08:31;;;;;;;4.00;2.38;;;8.60;99.90;;;;;;5000763;28;20109;-71
2024/02/19 00:10:58;;;;;;;4.30;2.08;;;8.70;99.90;;;;;;4970751;28;20051;-71
2024/02/19 00:13:25;;;;;;;3.60;2.30;;;8.70;99.90;;;;;;4970773;28;20281;-72
2024/02/19 00:15:52;;;;;;;4.70;2.33;;;8.70;99.90;;;;;;4991399;28;20128;-74
2024/02/19 00:18:20;;;;;;;3.85;1.98;;;8.70;99.90;;;;;;4992077;28;20539;-71
2024/02/19 00:20:49;;;;;;;4.25;2.13;;;8.70;99.90;;;;;;4992126;28;20065;-73
2024/02/19 00:23:16;;;;;;;3.20;2.00;;;8.70;99.90;;;;;;4980292;28;20437;-72
2024/02/19 00:25:43;;;;;;;3.67;2.10;;;8.80;99.90;;;;;;4994172;28;20038;-71
2024/02/19 00:28:11;;;;;;;3.60;2.00;;;8.80;99.90;;;;;;4992107;28;20089;-74
2024/02/19 00:30:39;;;;;;;6.18;2.72;;;8.80;99.90;;;;;;4965360;28;20061;-73
2024/02/19 00:33:06;;;;;;;4.82;2.17;;;8.80;99.90;;;;;;4996078;28;20065;-73
2024/02/19 00:35:33;;;;;;;4.03;2.47;;;8.80;99.90;;;;;;4999048;28;20039;-72
2024/02/19 00:38:00;;;;;;;5.25;2.88;;;8.80;99.90;;;;;;5002338;28;20046;-72
2024/02/19 00:40:27;;;;;;;3.35;2.10;;;8.80;99.90;;;;;;4995843;28;20674;-72
2024/02/19 00:42:54;;;;;;;3.78;2.08;;;8.80;99.90;;;;;;4980568;28;20046;-72
2024/02/19 00:45:22;;;;;;;4.35;2.55;;;8.80;99.90;;;;;;4993658;28;20046;-73
2024/02/19 00:47:48;;;;;;;3.80;2.60;;;8.80;99.90;;;;;;4958951;28;20221;-73
2024/02/19 00:50:16;;;;;;;5.82;2.70;;;8.70;99.90;;;;;;4985529;28;20145;-71
2024/02/19 00:52:43;;;;;;;4.28;2.58;;;8.70;99.90;;;;;;4976208;28;20133;-74
2024/02/19 00:55:10;;;;;;;3.92;2.58;;;8.70;99.90;;;;;;4991718;28;20042;-72
2024/02/19 00:57:37;;;;;;;5.90;2.92;;;8.70;99.90;;;;;;4969793;28;20050;-73
2024/02/19 01:00:05;;;;;;;4.60;2.90;;;8.70;99.90;;;;;;4977218;28;20048;-72
2024/02/19 01:02:35;;;;;;;4.80;2.75;;;8.70;99.90;;;;;;5016585;28;20461;-72
2024/02/19 01:05:03;;;;;;;4.80;2.90;;;8.80;99.90;;;;;;4993687;28;20120;-73
2024/02/19 01:07:30;;;;;;;5.13;3.20;;;8.70;99.90;;;;;;4974383;28;20399;-72
2024/02/19 01:09:58;;;;;;;4.85;3.17;;;8.70;99.90;;;;;;4994312;28;20267;-72
2024/02/19 01:12:24;;;;;;;6.13;2.90;;;8.80;99.90;;;;;;4975631;28;20509;-72
2024/02/19 01:14:52;;;;;;;6.32;3.45;;;8.80;99.90;;;;;;4975971;28;20105;-73
2024/02/19 01:17:19;;;;;;;5.47;3.10;;;8.70;99.90;;;;;;4994169;28;20048;-72
2024/02/19 01:19:46;;;;;;;6.53;3.70;;;8.80;99.90;;;;;;4995236;28;20050;-73
2024/02/19 01:22:13;;;;;;;5.75;3.50;;;8.80;99.90;;;;;;4990743;28;20090;-73
2024/02/19 01:24:40;;;;;;;5.93;3.38;;;8.70;99.90;;;;;;4991019;28;20046;-73
2024/02/19 01:27:07;;;;;;;5.68;3.08;;;8.80;99.90;;;;;;4976538;28;20049;-73
2024/02/19 01:29:35;;;;;;;5.25;3.13;;;8.70;99.90;;;;;;4990710;28;20125;-73
2024/02/19 01:32:02;;;;;;;5.32;3.63;;;8.70;99.90;;;;;;4975455;28;20038;-73
2024/02/19 01:34:29;;;;;;;5.07;3.42;;;8.70;99.90;;;;;;4994429;28;20056;-73
2024/02/19 01:36:57;;;;;;;5.18;3.00;;;8.70;99.90;;;;;;4991689;28;20042;-73
2024/02/19 01:39:25;;;;;;;4.95;3.22;;;8.70;99.90;;;;;;4996076;28;20144;-72
2024/02/19 01:41:52;;;;;;;4.72;3.20;;;8.70;99.90;;;;;;4976217;28;20414;-72
2024/02/19 01:44:19;;;;;;;4.97;3.38;;;8.80;99.90;;;;;;4991992;28;20477;-72
2024/02/19 01:46:46;;;;;;;6.45;3.60;;;8.80;99.90;;;;;;4973869;28;20048;-73
2024/02/19 01:49:13;;;;;;;5.10;3.08;;;8.80;99.90;;;;;;4991940;28;20137;-72
2024/02/19 01:51:42;;;;;;;5.20;3.45;;;8.80;99.90;;;;;;4990043;28;20039;-72
2024/02/19 01:54:10;;;;;;;4.93;3.45;;;8.70;99.90;;;;;;4983001;28;20046;-73
2024/02/19 01:56:39;;;;;;;6.00;3.38;;;8.80;99.90;;;;;;4973251;28;20061;-72
2024/02/19 01:59:07;;;;;;;5.43;3.50;;;8.70;99.90;;;;;;4994193;28;20061;-71
2024/02/19 02:01:37;;;;;;;5.82;3.60;;;8.60;99.90;;;;;;4977670;28;20050;-71
2024/02/19 02:04:08;;;;;;;7.35;4.05;;;8.60;99.90;;;;;;4999757;28;20148;-71
2024/02/19 02:06:35;;;;;;;7.05;4.15;;;8.60;99.90;;;;;;4967556;28;20053;-72
2024/02/19 02:09:03;;;;;;;5.43;3.83;;;8.50;99.90;;;;;;4975461;28;20046;-73
2024/02/19 02:11:30;;;;;;;6.43;3.95;;;8.50;99.90;;;;;;4989327;28;20065;-73
2024/02/19 02:13:57;;;;;;;5.45;3.70;;;8.50;99.90;;;;;;4976056;28;20065;-73
2024/02/19 02:16:26;;;;;;;7.22;3.28;;;8.40;99.90;;;;;;4991368;28;20507;-72
2024/02/19 02:18:53;;;;;;;7.05;3.53;;;8.50;99.90;;;;;;4970787;28;20073;-74
2024/02/19 02:21:21;;;;;;;4.93;3.63;;;8.50;99.90;;;;;;4987909;28;20153;-73
2024/02/19 02:23:48;;;;;;;6.90;3.85;;;8.50;99.90;;;;;;4990903;28;20450;-73
2024/02/19 02:26:17;;;;;;;6.68;3.95;;;8.50;99.90;;;;;;4974251;28;20489;-74
2024/02/19 02:28:44;;;;;;;6.85;3.83;;;8.50;99.90;;;;;;4975225;28;20068;-73
2024/02/19 02:31:10;;;;;;;7.50;4.10;;;8.40;99.90;;;;;;4988582;28;20042;-73
2024/02/19 02:33:38;;;;;;;6.22;3.47;;;8.40;99.90;;;;;;4989765;28;20469;-73
2024/02/19 02:36:09;;;;;;;6.80;3.20;;;8.50;99.90;;;;;;4992280;28;20046;-74
2024/02/19 02:38:36;;;;;;;5.88;3.45;;;8.50;99.90;;;;;;5008776;28;20038;-73
2024/02/19 02:41:03;;;;;;;4.90;3.00;;;8.50;99.90;;;;;;4983082;28;20192;-73
2024/02/19 02:43:30;;;;;;;5.15;3.08;;;8.50;99.90;;;;;;4970050;28;20040;-72
2024/02/19 02:45:57;;;;;;;6.72;3.25;;;8.40;99.90;;;;;;4971913;28;20629;-73
2024/02/19 02:48:25;;;;;;;5.57;3.47;;;8.50;99.90;;;;;;4954139;28;20125;-73
2024/02/19 02:50:52;;;;;;;5.32;3.25;;;8.50;99.90;;;;;;4970600;28;20140;-73
2024/02/19 02:53:21;;;;;;;4.85;3.33;;;8.60;99.90;;;;;;4963240;28;20766;-72
2024/02/19 02:55:48;;;;;;;5.20;2.90;;;8.50;99.90;;;;;;4956007;28;20578;-73
2024/02/19 02:58:15;;;;;;;5.75;2.95;;;8.50;99.90;;;;;;5003084;28;20069;-73
2024/02/19 03:00:42;;;;;;;4.80;2.78;;;8.50;99.90;;;;;;4989200;28;20100;-72
2024/02/19 03:03:09;;;;;;;5.70;2.80;;;8.60;99.90;;;;;;4991477;28;20120;-73
2024/02/19 03:05:38;;;;;;;4.75;2.70;;;8.60;99.90;;;;;;4974166;28;20653;-73
2024/02/19 03:08:05;;;;;;;5.68;2.42;;;8.60;99.90;;;;;;4971572;28;20038;-73
2024/02/19 03:10:32;;;;;;;4.60;2.67;;;8.60;99.90;;;;;;4975328;28;20038;-72
2024/02/19 03:12:59;;;;;;;4.45;2.08;;;8.60;99.90;;;;;;4988819;28;20042;-73
2024/02/19 03:15:26;;;;;;;4.18;2.72;;;8.60;99.90;;;;;;4992788;28;20050;-73
2024/02/19 03:17:53;;;;;;;4.70;2.50;;;8.60;99.90;;;;;;4970674;28;20060;-73
2024/02/19 03:20:23;;;;;;;3.88;2.50;;;8.60;99.90;;;;;;4987693;28;20045;-72
2024/02/19 03:22:51;;;;;;;4.68;2.47;;;8.60;99.90;;;;;;4987514;28;20402;-72
2024/02/19 03:25:19;;;;;;;4.20;2.47;;;8.60;99.90;;;;;;4998410;28;20130;-73
2024/02/19 03:27:46;;;;;;;4.20;2.50;;;8.60;99.90;;;;;;4989887;28;20201;-73
2024/02/19 03:30:14;;;;;;;5.80;2.60;;;8.60;99.90;;;;;;4974055;28;20044;-73
2024/02/19 03:32:41;;;;;;;5.55;2.60;;;8.70;99.90;;;;;;4988961;28;20388;-71
2024/02/19 03:35:09;;;;;;;4.40;2.78;;;8.60;99.90;;;;;;4988962;28;20077;-74
2024/02/19 03:37:36;;;;;;;4.63;2.72;;;8.60;99.90;;;;;;4988364;28;20042;-74
2024/02/19 03:40:06;;;;;;;6.30;2.60;;;8.60;99.90;;;;;;4985997;28;20042;-73
2024/02/19 03:42:34;;;;;;;3.90;2.67;;;8.60;99.90;;;;;;4991090;28;20481;-74
2024/02/19 03:45:01;;;;;;;5.00;2.65;;;8.60;99.90;;;;;;4987681;28;20050;-73
2024/02/19 03:47:28;;;;;;;7.00;2.80;;;8.60;99.90;;;;;;4964786;28;20128;-73
2024/02/19 03:49:56;;;;;;;4.65;2.55;;;8.60;99.90;;;;;;4958530;28;20431;-73
2024/02/19 03:52:23;;;;;;;4.38;2.45;;;8.60;99.90;;;;;;4988084;28;20038;-73
2024/02/19 03:54:50;;;;;;;4.10;2.30;;;8.60;99.90;;;;;;4974572;28;20045;-73
2024/02/19 03:57:17;;;;;;;4.85;2.80;;;8.60;99.90;;;;;;4957752;28;20049;-74
2024/02/19 03:59:44;;;;;;;7.32;2.72;;;8.60;99.90;;;;;;4971207;28;20514;-74
2024/02/19 04:02:11;;;;;;;4.82;2.47;;;8.50;99.90;;;;;;4970192;28;20046;-75
2024/02/19 04:04:37;;;;;;;7.43;2.80;;;8.50;99.90;;;;;;4971943;28;20046;-73
2024/02/19 04:07:05;;;;;;;5.57;2.67;;;8.50;99.90;;;;;;4983733;28;20813;-74
2024/02/19 04:09:34;;;;;;;6.15;2.90;;;8.40;99.90;;;;;;4988805;28;20446;-72
2024/02/19 04:12:05;;;;;;;6.82;2.50;;;8.40;99.90;;;;;;4970328;28;20049;-74
2024/02/19 04:14:32;;;;;;;3.77;2.30;;;8.50;99.90;;;;;;4986680;28;20038;-73
2024/02/19 04:16:59;;;;;;;7.93;2.88;;;8.40;99.90;;;;;;4967953;28;20114;-73
2024/02/19 04:19:29;;;;;;;6.53;2.40;;;8.40;99.90;;;;;;4987606;28;20073;-74
2024/02/19 04:21:56;;;;;;;4.88;2.65;;;8.40;99.90;;;;;;4973475;28;20068;-74
2024/02/19 04:24:23;;;;;;;5.15;2.63;;;8.40;99.90;;;;;;4978502;28;20049;-74
2024/02/19 04:26:50;;;;;;;5.30;2.60;;;8.50;99.90;;;;;;4976407;28;20046;-74
2024/02/19 04:29:17;;;;;;;7.10;3.00;;;8.40;99.90;;;;;;4955991;28;20049;-73
2024/02/19 04:31:44;;;;;;;4.85;2.40;;;8.40;99.90;;;;;;4970229;28;20061;-75
2024/02/19 04:34:11;;;;;;;5.43;2.50;;;8.40;99.90;;;;;;4973838;28;20042;-73
2024/02/19 04:36:38;;;;;;;5.72;2.63;;;8.40;99.90;;;;;;4938013;28;20046;-73
2024/02/19 04:39:05;;;;;;;4.15;2.20;;;8.50;99.90;;;;;;4987279;28;20418;-72
2024/02/19 04:41:32;;;;;;;5.07;2.55;;;8.40;99.90;;;;;;4988312;28;20050;-72
2024/02/19 04:43:59;;;;;;;5.60;2.72;;;8.40;99.90;;;;;;4990324;28;20478;-73
2024/02/19 04:46:27;;;;;;;7.55;2.90;;;8.50;99.90;;;;;;4976112;28;20194;-73
2024/02/19 04:48:54;;;;;;;6.13;3.00;;;8.50;99.90;;;;;;4997591;28;20793;-76
2024/02/19 04:51:21;;;;;;;9.27;2.97;;;8.40;99.90;;;;;;4990267;28;20054;-72
2024/02/19 04:53:48;;;;;;;7.47;2.70;;;8.40;99.90;;;;;;5011642;28;20046;-71
2024/02/19 04:56:15;;;;;;;4.88;2.80;;;8.50;99.90;;;;;;4991220;28;20049;-73
2024/02/19 04:58:42;;;;;;;5.88;2.70;;;8.50;99.90;;;;;;4972916;28;20491;-73
2024/02/19 05:01:09;;;;;;;6.53;2.70;;;8.50;99.90;;;;;;4991717;28;20052;-75
2024/02/19 05:03:36;;;;;;;5.43;2.72;;;8.50;99.90;;;;;;4973771;28;20284;-72
2024/02/19 05:06:04;;;;;;;6.43;3.30;;;8.50;99.90;;;;;;4967744;28;20093;-73
2024/02/19 05:08:30;;;;;;;5.55;3.10;;;8.50;99.90;;;;;;4992291;28;20049;-72
2024/02/19 05:10:57;;;;;;;5.15;3.05;;;8.50;99.90;;;;;;4990819;28;20047;-72
2024/02/19 05:13:24;;;;;;;7.25;2.80;;;8.50;99.90;;;;;;4990354;28;20034;-73
2024/02/19 05:15:52;;;;;;;7.28;3.67;;;8.50;99.90;;;;;;4990996;28;20054;-72
2024/02/19 05:18:19;;;;;;;8.02;3.65;;;8.60;99.90;;;;;;4989252;28;20121;-73
2024/02/19 05:20:46;;;;;;;7.97;3.25;;;8.50;99.90;;;;;;4999016;28;20129;-74
2024/02/19 05:23:13;;;;;;;5.90;3.47;;;8.50;99.90;;;;;;4997748;28;20084;-72
2024/02/19 05:25:40;;;;;;;6.53;3.25;;;8.50;99.90;;;;;;4990819;28;20042;-74
2024/02/19 05:28:07;;;;;;;7.13;3.03;;;8.50;99.90;;;;;;5012630;28;20550;-73
2024/02/19 05:30:36;;;;;;;6.45;3.30;;;8.40;99.90;;;;;;4990833;28;20038;-73
2024/02/19 05:33:04;;;;;;;6.05;3.17;;;8.50;99.90;;;;;;4973098;28;20101;-74
2024/02/19 05:35:31;;;;;;;4.82;3.22;;;8.50;99.90;;;;;;4955920;28;20070;-74
2024/02/19 05:37:59;;;;;;;7.65;4.07;;;8.50;99.90;;;;;;4978973;28;20142;-75
2024/02/19 05:40:26;;;;;;;5.78;3.40;;;8.50;99.90;;;;;;4988419;28;20062;-74
2024/02/19 05:42:53;;;;;;;6.90;3.72;;;8.50;99.90;;;;;;4983559;28;20050;-72
2024/02/19 05:45:20;;;;;;;6.60;3.30;;;8.50;99.90;;;;;;5004296;28;20038;-72
2024/02/19 05:47:47;;;;;;;8.55;3.40;;;8.50;99.90;;;;;;4971902;28;20038;-74
2024/02/19 05:50:15;;;;;;;6.32;3.30;;;8.50;99.90;;;;;;4976167;28;20066;-74
2024/02/19 05:52:42;;;;;;;10.30;3.40;;;8.50;99.90;;;;;;4975241;28;20074;-74
2024/02/19 05:55:09;;;;;;;6.35;2.97;;;8.50;99.90;;;;;;4989530;28;20042;-74
2024/02/19 05:57:37;;;;;;;7.13;3.22;;;8.50;99.90;;;;;;4988861;28;20053;-76
2024/02/19 06:00:05;;;;;;;4.75;2.42;;;8.50;99.90;;;;;;4954682;28;20039;-75
2024/02/19 06:02:33;;;;;;;6.68;2.63;;;8.50;99.90;;;;;;4989425;28;20065;-75
2024/02/19 06:05:00;;;;;;;6.10;2.83;;;8.60;99.90;;;;;;4991520;28;20039;-75
2024/02/19 06:07:31;;;;;;;4.78;2.58;;;8.60;99.90;;;;;;4993265;28;20517;-75
2024/02/19 06:09:58;;;;;;;7.43;2.60;;;8.60;99.90;;;;;;5000804;28;20046;-74
2024/02/19 06:12:25;;;;;;;9.00;3.05;;;8.60;99.90;;;;;;4990015;28;20074;-75
2024/02/19 06:14:52;;;;;;;4.97;2.47;;;8.50;99.90;;;;;;5011418;28;20059;-74
2024/02/19 06:17:19;;;;;;;3.70;2.30;;;8.60;99.90;;;;;;4975624;28;20443;-73
2024/02/19 06:19:46;;;;;;;5.53;2.67;;;8.60;99.90;;;;;;4993290;28;20035;-73
2024/02/19 06:22:14;;;;;;;6.75;3.00;;;8.60;99.90;;;;;;4975354;28;20125;-74
2024/02/19 06:24:43;;;;;;;4.05;2.50;;;8.50;99.90;;;;;;4975279;28;20049;-74
2024/02/19 06:27:10;;;;;;;4.32;2.28;;;8.60;99.90;;;;;;4990320;28;20046;-74
2024/02/19 06:29:37;;;;;;;4.88;2.25;;;8.60;99.90;;;;;;4976553;28;20120;-75
2024/02/19 06:32:04;;;;;;;5.55;2.85;;;8.70;99.90;;;;;;4993846;28;20069;-74
2024/02/19 06:34:34;;;;;;;5.97;2.45;;;8.70;99.90;;;;;;4974069;28;20042;-74
2024/02/19 06:37:02;;;;;;;4.82;2.67;;;8.60;99.90;;;;;;4978718;28;20404;-75
2024/02/19 06:39:29;;;;;;;8.40;2.38;;;8.60;99.90;;;;;;4969925;28;20134;-75
2024/02/19 06:41:56;;;;;;;5.45;2.60;;;8.60;99.90;;;;;;4992760;28;20502;-75
2024/02/19 06:44:23;;;;;;;4.57;2.63;;;8.70;99.90;;;;;;5004125;28;20061;-74
2024/02/19 06:46:51;;;;;;;5.95;2.47;;;8.70;99.90;;;;;;4978207;28;20101;-74
2024/02/19 06:49:22;;;;;;;7.03;2.33;;;8.70;99.90;;;;;;4975915;28;20109;-73
2024/02/19 06:51:50;;;;;;;3.92;2.53;;;8.70;99.90;;;;;;4993575;28;20046;-74
2024/02/19 06:54:17;;;;;;;5.22;2.70;;;8.70;99.90;;;;;;4965014;28;20042;-74
2024/02/19 06:56:45;;;;;;;7.72;3.28;;;8.70;99.90;;;;;;4973380;28;20062;-72
2024/02/19 06:59:12;;;;;;;7.38;2.80;;;8.70;99.90;;;;;;4995497;28;20580;-72
2024/02/19 07:01:39;;;;;;;9.68;3.13;;;8.70;99.90;;;;;;4976296;28;20104;-71
2024/02/19 07:04:06;;;;;;;7.00;3.38;;;8.70;99.90;;;;;;4977546;28;20050;-74
2024/02/19 07:06:33;;;;;;;7.43;3.15;;;8.70;99.90;;;;;;4990305;28;20104;-74
2024/02/19 07:09:00;;;;;;;5.85;2.80;;;8.80;99.90;;;;;;4976927;28;20129;-74
2024/02/19 07:11:27;;;;;;;6.80;2.83;;;8.80;99.90;;;;;;4972239;28;20417;-74
2024/02/19 07:13:55;;;;;;;6.30;2.17;;;8.80;99.90;;;;;;4973501;28;20042;-74
2024/02/19 07:16:23;;;;;;;3.70;2.30;;;8.80;99.90;;;;;;4981976;28;20069;-74
2024/02/19 07:18:50;;;;;;;5.88;2.75;;;8.80;99.90;;;;;;4959912;28;20290;-74
2024/02/19 07:21:17;;;;;;;4.95;2.25;;;8.80;99.90;;;;;;4975628;28;20128;-74
2024/02/19 07:23:44;;;;;;;4.38;2.42;;;8.80;99.90;;;;;;4951945;28;20078;-75
2024/02/19 07:26:12;;;;;;;4.75;2.05;;;8.80;99.90;;;;;;4956962;28;20142;-74
2024/02/19 07:28:39;;;;;;;5.25;2.30;;;8.90;99.90;;;;;;4989896;28;20031;-73
2024/02/19 07:31:06;;;;;;;4.43;2.38;;;8.90;99.90;;;;;;4976238;28;20125;-73
2024/02/19 07:33:35;;;;;;;4.03;2.00;;;8.90;99.90;;;;;;4989338;28;20042;-73
2024/02/19 07:36:03;;;;;;;4.32;2.10;;;8.90;99.90;;;;;;4980636;28;20046;-73
2024/02/19 07:38:30;;;;;;;3.40;1.83;;;8.80;99.90;;;;;;4970478;28;20057;-73
2024/02/19 07:40:56;;;;;;;4.53;1.70;;;8.90;99.90;;;;;;4989945;28;20073;-73
2024/02/19 07:43:24;;;;;;;4.90;2.03;;;8.90;99.90;;;;;;4979838;28;20069;-74
2024/02/19 07:45:51;;;;;;;2.88;1.67;;;8.90;99.90;;;;;;4957580;28;20157;-73
2024/02/19 07:48:18;;;;;;;6.68;2.72;;;8.90;99.90;;;;;;4987916;28;20045;-74
2024/02/19 07:50:45;;;;;;;4.57;2.15;;;8.90;99.90;;;;;;4955873;28;20034;-73
2024/02/19 07:53:12;;;;;;;5.00;2.08;;;8.90;99.90;;;;;;4992082;28;20504;-74
2024/02/19 07:55:43;;;;;;;3.00;1.70;;;8.90;99.90;;;;;;4988859;28;20611;-73
2024/02/19 07:58:10;;;;;;;6.05;1.70;;;8.90;99.90;;;;;;4985051;28;20073;-72
2024/02/19 08:00:37;;;;;;;4.38;1.90;;;8.90;99.90;;;;;;4974259;28;20082;-73
2024/02/19 08:03:04;;;;;;;3.83;1.50;;;8.90;99.90;;;;;;4977433;28;20050;-73
2024/02/19 08:05:31;;;;;;;5.00;1.77;;;8.90;99.90;;;;;;4991173;28;20482;-71
2024/02/19 08:07:58;;;;;;;4.65;1.80;;;8.80;99.90;;;;;;4991782;28;20054;-72
2024/02/19 08:10:25;;;;;;;2.53;1.70;;;8.90;99.90;;;;;;4987602;28;20041;-72
2024/02/19 08:12:53;;;;;;;2.80;1.40;;;8.80;99.90;;;;;;4989907;28;20185;-72
2024/02/19 08:15:20;;;;;;;4.72;1.95;;;8.80;99.90;;;;;;4959278;28;20108;-72
2024/02/19 08:17:47;;;;;;;4.65;1.80;;;8.90;99.90;;;;;;4992694;28;20080;-74
2024/02/19 08:20:14;;;;;;;3.80;1.73;;;9.00;99.90;;;;;;4991432;28;20049;-73
2024/02/19 08:22:41;;;;;;;5.38;2.10;;;8.80;99.90;;;;;;4976649;28;20073;-73
2024/02/19 08:25:12;;;;;;;6.43;2.40;;;8.70;99.90;;;;;;4976170;28;20223;-73
2024/02/19 08:27:39;;;;;;;8.73;3.40;;;8.90;99.90;;;;;;4994568;28;20784;-73
2024/02/19 08:30:07;;;;;;;5.72;2.40;;;8.80;99.90;;;;;;4977373;28;20061;-73
2024/02/19 08:32:34;;;;;;;5.15;2.53;;;8.80;99.90;;;;;;4991193;28;20430;-73
2024/02/19 08:35:01;;;;;;;7.50;2.72;;;8.90;99.90;;;;;;4991214;28;20425;-74
2024/02/19 08:37:29;;;;;;;4.60;2.50;;;9.00;99.90;;;;;;4958893;28;20049;-74
2024/02/19 08:39:56;;;;;;;6.78;2.30;;;9.00;99.90;;;;;;4989659;28;20046;-73
2024/02/19 08:42:24;;;;;;;7.00;2.40;;;9.10;99.90;;;;;;4995704;28;21320;-72
2024/02/19 08:44:51;;;;;;;9.82;2.60;;;9.10;99.90;;;;;;4973895;28;20145;-74
2024/02/19 08:47:18;;;;;;;5.90;2.10;;;9.10;99.90;;;;;;4989982;28;20062;-73
2024/02/19 08:49:45;;;;;;;7.00;2.67;;;9.10;99.90;;;;;;4989561;28;20064;-74
2024/02/19 08:52:14;;;;;;;7.50;3.10;;;9.10;99.90;;;;;;4990371;28;20133;-74
2024/02/19 08:54:41;;;;;;;7.93;2.70;;;9.00;99.90;;;;;;4992738;28;20402;-71
2024/02/19 08:57:08;;;;;;;6.22;2.75;;;8.80;99.90;;;;;;4973270;28;20104;-74
2024/02/19 08:59:35;;;;;;;6.00;2.50;;;8.70;99.90;;;;;;4976512;28;20046;-75
2024/02/19 09:02:03;;;;;;;5.45;2.50;;;8.70;99.90;;;;;;4990285;28;20267;-72
2024/02/19 09:04:30;;;;;;;9.65;3.30;;;8.80;99.90;;;;;;4993890;28;20065;-73
2024/02/19 09:06:58;;;;;;;4.35;2.30;;;9.00;99.90;;;;;;4975876;28;20047;-75
2024/02/19 09:09:25;;;;;;;6.80;2.53;;;8.90;99.90;;;;;;4973804;28;20062;-74
2024/02/19 09:11:52;;;;;;;7.90;2.60;;;8.80;99.90;;;;;;4980133;28;20081;-74
2024/02/19 09:14:19;;;;;;;4.90;2.42;;;8.70;99.90;;;;;;4977706;28;20054;-74
2024/02/19 09:16:47;;;;;;;9.25;3.10;;;8.70;99.90;;;;;;4978415;28;20516;-74
2024/02/19 09:19:15;;;;;;;6.35;2.80;;;8.70;99.90;;;;;;4975738;28;20056;-73
2024/02/19 09:21:44;;;;;;;8.77;3.45;;;8.70;99.90;;;;;;4978462;28;20469;-73
2024/02/19 09:24:12;;;;;;;7.45;3.42;;;8.70;99.90;;;;;;4975704;28;20069;-73
2024/02/19 09:26:39;;;;;;;8.98;3.03;;;8.80;99.90;;;;;;4959468;28;20042;-74
2024/02/19 09:29:06;;;;;;;9.70;3.15;;;8.80;99.90;;;;;;4958535;28;20046;-73
2024/02/19 09:31:33;;;;;;;10.43;2.80;;;8.90;99.90;;;;;;4988522;28;20066;-74
2024/02/19 09:34:00;;;;;;;7.15;2.40;;;8.80;99.90;;;;;;4973394;28;20038;-72
2024/02/19 09:36:27;;;;;;;5.07;2.50;;;8.80;99.90;;;;;;4972450;28;20054;-73
2024/02/19 09:38:54;;;;;;;6.97;2.58;;;8.70;99.90;;;;;;4973901;28;20054;-72
2024/02/19 09:41:23;;;;;;;9.43;2.58;;;8.80;99.90;;;;;;4992203;28;20038;-73
2024/02/19 09:43:51;;;;;;;6.50;2.33;;;8.90;99.90;;;;;;5003701;28;20167;-72
2024/02/19 09:46:21;;;;;;;9.55;2.22;;;8.90;99.90;;;;;;4974029;28;20270;-73
2024/02/19 09:48:50;;;;;;;6.07;2.55;;;8.90;99.90;;;;;;4958815;28;20073;-73
2024/02/19 09:51:21;;;;;;;5.88;2.30;;;8.80;99.90;;;;;;4988331;28;20574;-72
2024/02/19 09:54:03;;;;;;;5.07;2.67;;;8.80;99.90;;;;;;4991997;28;20506;-73
2024/02/19 09:56:33;;;;;;;6.70;3.10;;;8.80;99.90;;;;;;4988903;28;20530;-71
2024/02/19 09:59:00;;;;;;;8.23;3.08;;;8.80;99.90;;;;;;4969157;28;20120;-73
2024/02/19 10:01:27;;;;;;;6.20;2.55;;;8.90;99.90;;;;;;4977246;28;20406;-74
2024/02/19 10:03:56;;;;;;;8.63;3.08;;;8.80;99.90;;;;;;4974848;28;20050;-73
2024/02/19 10:06:36;;;;;;;8.73;3.38;;;8.70;99.90;;;;;;4972837;28;20054;-72
2024/02/19 10:09:11;;;;;;;9.10;3.17;;;8.80;99.90;;;;;;4971338;28;20048;-73
2024/02/19 10:11:38;;;;;;;5.97;3.33;;;8.70;99.90;;;;;;4973578;28;20069;-72
2024/02/19 10:14:06;;;;;;;7.43;3.03;;;8.80;99.90;;;;;;4989805;28;20046;-73
2024/02/19 10:16:33;;;;;;;8.05;2.92;;;8.80;99.90;;;;;;4959763;28;20151;-73
2024/02/19 10:19:08;;;;;;;7.93;2.72;;;9.00;99.90;;;;;;4971111;28;20042;-72
2024/02/19 10:21:36;;;;;;;8.88;3.03;;;9.10;99.90;;;;;;4980718;28;20038;-73
2024/02/19 10:24:04;;;;;;;8.40;3.22;;;9.30;99.90;;;;;;4956770;28;20057;-72
2024/02/19 10:26:32;;;;;;;7.88;2.90;;;9.30;99.90;;;;;;4967790;28;20038;-73
2024/02/19 10:28:59;;;;;;;5.75;2.83;;;9.30;99.90;;;;;;4974027;28;20078;-72
2024/02/19 10:31:31;;;;;;;7.32;2.83;;;9.40;99.90;;;;;;5003908;28;20108;-73
2024/02/19 10:33:58;;;;;;;8.38;2.90;;;9.40;99.90;;;;;;4972510;28;20045;-72
2024/02/19 10:36:26;;;;;;;6.63;2.85;;;9.50;99.90;;;;;;4991914;28;20049;-72
2024/02/19 10:38:53;;;;;;;6.20;2.75;;;9.40;99.90;;;;;;4985219;28;20050;-73
2024/02/19 10:41:23;;;;;;;7.50;2.78;;;9.40;99.90;;;;;;4995566;28;20068;-72
2024/02/19 10:43:53;;;;;;;7.55;3.22;;;9.40;99.90;;;;;;4971586;28;20050;-72
2024/02/19 10:46:21;;;;;;;7.85;3.00;;;9.40;99.90;;;;;;4987141;28;20364;-72
2024/02/19 10:48:51;;;;;;;7.97;2.90;;;9.50;99.90;;;;;;4980876;28;20522;-72
2024/02/19 10:51:20;;;;;;;5.80;2.42;;;9.50;99.90;;;;;;4988776;28;20161;-70
2024/02/19 10:53:56;;;;;;;4.88;2.97;;;9.40;99.90;;;;;;4976956;28;20049;-74
2024/02/19 10:56:23;;;;;;;6.63;2.90;;;9.20;99.90;;;;;;5005328;28;20494;-73
2024/02/19 10:58:55;;;;;;;8.40;2.63;;;9.10;99.90;;;;;;4988619;28;20565;-73
2024/02/19 11:01:23;;;;;;;4.43;2.22;;;9.20;99.90;;;;;;4960081;28;20068;-73
2024/02/19 11:03:50;;;;;;;8.48;2.60;;;9.20;99.90;;;;;;4964343;28;20137;-73
2024/02/19 11:06:22;;;;;;;5.75;2.63;;;9.30;99.90;;;;;;4973360;28;20054;-73
2024/02/19 11:08:54;;;;;;;9.48;2.72;;;9.40;99.90;;;;;;4968443;28;20050;-73
2024/02/19 11:11:22;;;;;;;6.13;2.85;;;9.40;99.90;;;;;;4985887;28;20041;-73
2024/02/19 11:13:49;;;;;;;5.05;2.35;;;9.40;99.90;;;;;;4988328;28;20043;-73
2024/02/19 11:16:19;;;;;;;7.55;2.55;;;9.20;99.90;;;;;;4990772;28;20045;-73
2024/02/19 11:18:48;;;;;;;7.22;3.33;;;9.20;99.90;;;;;;4984242;28;20541;-73
2024/02/19 11:21:19;;;;;;;5.30;2.53;;;9.10;99.90;;;;;;4990169;28;20038;-73
2024/02/19 11:23:45;;;;;;;7.10;2.33;;;9.20;99.90;;;;;;4996613;28;20062;-73
2024/02/19 11:26:13;;;;;;;4.20;2.22;;;9.20;99.90;;;;;;4995500;28;20533;-73
2024/02/19 11:28:40;;;;;;;7.28;2.35;;;9.00;99.90;;;;;;4955807;28;20112;-73
2024/02/19 11:31:09;;;;;;;5.78;2.50;;;8.90;99.90;;;;;;4969417;28;20039;-73
2024/02/19 11:33:36;;;;;;;7.65;2.40;;;8.90;99.90;;;;;;4987967;28;20402;-73
2024/02/19 11:36:03;;;;;;;5.57;2.30;;;9.00;99.90;;;;;;4989954;28;20054;-73
2024/02/19 11:38:32;;;;;;;8.18;2.38;;;9.00;99.90;;;;;;4970156;28;20478;-73
2024/02/19 11:41:01;;;;;;;7.45;2.70;;;8.90;99.90;;;;;;4996375;28;20132;-74
2024/02/19 11:43:28;;;;;;;5.00;2.17;;;9.10;99.90;;;;;;4987088;28;20045;-73
2024/02/19 11:45:57;;;;;;;4.85;2.15;;;9.20;99.90;;;;;;4980925;28;20142;-73
2024/02/19 11:48:25;;;;;;;3.83;1.80;;;9.30;99.90;;;;;;4988149;28;20465;-74
2024/02/19 11:50:53;;;;;;;4.75;1.50;;;9.20;99.90;;;;;;4974937;28;20129;-74
2024/02/19 11:53:21;;;;;;;6.10;1.98;;;9.30;99.90;;;;;;5004991;28;20148;-74
2024/02/19 11:56:02;;;;;;;4.55;1.90;;;9.20;99.90;;;;;;4995906;28;20037;-73
2024/02/19 11:58:31;;;;;;;3.53;1.48;;;9.20;99.90;;;;;;4985984;28;20046;-75
2024/02/19 12:01:02;;;;;;;4.78;2.03;;;9.20;99.90;;;;;;4959406;28;20046;-76
2024/02/19 12:03:29;;;;;;;5.03;1.95;;;9.20;99.90;;;;;;4977334;28;20279;-75
2024/02/19 12:06:00;;;;;;;4.90;1.80;;;9.10;99.90;;;;;;4991159;28;20038;-75
2024/02/19 12:08:31;;;;;;;5.38;1.70;;;9.00;99.90;;;;;;5007708;28;20093;-72
2024/02/19 12:10:58;;;;;;;6.15;1.90;;;9.10;99.90;;;;;;5011738;28;20030;-72
2024/02/19 12:13:26;;;;;;;4.10;2.03;;;9.10;99.90;;;;;;4973080;28;20050;-72
2024/02/19 12:15:53;;;;;;;3.40;1.75;;;9.10;99.90;;;;;;4975114;28;20447;-73
2024/02/19 12:18:20;;;;;;;4.38;1.70;;;9.00;99.90;;;;;;4991926;28;20049;-72
2024/02/19 12:20:48;;;;;;;5.53;2.05;;;8.90;99.90;;;;;;4993265;28;20049;-72
2024/02/19 12:23:15;;;;;;;3.78;2.00;;;9.00;99.90;;;;;;4978310;28;20465;-73
2024/02/19 12:25:42;;;;;;;5.40;1.70;;;9.20;99.90;;;;;;4975903;28;20065;-71
2024/02/19 12:28:09;;;;;;;2.88;1.80;;;9.30;99.90;;;;;;4982419;28;20038;-73
2024/02/19 12:30:37;;;;;;;3.45;1.63;;;9.30;99.90;;;;;;4979737;28;20038;-73
2024/02/19 12:33:04;;;;;;;3.25;1.83;;;9.20;99.90;;;;;;4999096;28;20141;-72
2024/02/19 12:35:31;;;;;;;10.55;2.30;;;9.20;99.90;;;;;;4992436;28;20035;-72
2024/02/19 12:37:59;;;;;;;3.38;1.80;;;9.20;99.90;;;;;;4982698;28;20066;-72
2024/02/19 12:40:27;;;;;;;3.13;1.70;;;9.10;99.90;;;;;;4959002;28;20074;-73
2024/02/19 12:42:54;;;;;;;3.97;1.80;;;9.10;99.90;;;;;;4974676;28;20148;-72
2024/02/19 12:45:21;;;;;;;5.85;1.80;;;9.10;99.90;;;;;;4991255;28;20046;-73
2024/02/19 12:47:51;;;;;;;3.80;1.77;;;9.10;99.90;;;;;;4972654;28;20084;-74
2024/02/19 12:50:19;;;;;;;2.90;1.58;;;9.00;99.90;;;;;;4994436;28;20054;-73
2024/02/19 12:52:46;;;;;;;4.25;1.75;;;9.10;99.90;;;;;;4993612;28;20034;-73
2024/02/19 12:55:14;;;;;;;5.43;2.03;;;9.10;99.90;;;;;;4976087;28;20041;-73
2024/02/19 12:57:46;;;;;;;3.42;1.50;;;9.20;99.90;;;;;;4990186;28;20054;-74
2024/02/19 13:00:13;;;;;;;3.55;1.80;;;9.30;99.90;;;;;;4994282;28;20043;-73